createdAt,value
2022-10-28T00:02:42.590Z,3.20
2022-10-28T00:07:45.961Z,4.20
2022-10-28T00:12:49.159Z,5.40
2022-10-28T00:17:53.058Z,3.40
2022-10-28T00:22:56.842Z,3.50
2022-10-28T00:28:02.496Z,5.20
2022-10-28T00:33:05.649Z,3.00
2022-10-28T00:38:08.836Z,4.40
2022-10-28T00:43:12.688Z,2.50
2022-10-28T00:48:15.853Z,2.70
2022-10-28T00:53:25.703Z,1.90
2022-10-28T00:58:29.815Z,2.40
2022-10-28T01:03:33.005Z,2.70
2022-10-28T01:08:36.222Z,3.30
2022-10-28T01:13:44.540Z,3.30
2022-10-28T01:18:59.698Z,3.10
2022-10-28T01:24:30.215Z,4.00
2022-10-28T01:30:07.121Z,2.90
2022-10-28T01:35:26.113Z,3.20
2022-10-28T01:40:40.796Z,3.50
2022-10-28T01:45:59.973Z,2.90
2022-10-28T01:51:29.740Z,2.00
2022-10-28T01:56:39.572Z,3.00
2022-10-28T02:01:42.978Z,2.90
2022-10-28T02:06:48.750Z,3.20
2022-10-28T02:12:17.242Z,3.20
2022-10-28T02:17:45.451Z,2.30
2022-10-28T02:22:55.829Z,2.50
2022-10-28T02:33:19.125Z,2.50
2022-10-28T02:38:39.835Z,1.80
2022-10-28T02:43:44.199Z,3.20
2022-10-28T02:48:55.534Z,2.80
2022-10-28T02:54:09.662Z,2.10
2022-10-28T02:59:13.571Z,2.70
2022-10-28T03:04:16.715Z,1.60
2022-10-28T03:09:19.928Z,2.90
2022-10-28T03:14:23.188Z,1.30
2022-10-28T03:19:26.380Z,3.40
2022-10-28T03:24:30.199Z,2.70
2022-10-28T03:29:36.261Z,1.80
2022-10-28T03:34:39.715Z,3.20
2022-10-28T03:39:43.046Z,2.70
2022-10-28T03:44:46.692Z,2.90
2022-10-28T03:49:50.613Z,3.30
2022-10-28T03:54:53.713Z,4.10
2022-10-28T03:59:56.805Z,2.70
2022-10-28T04:05:00.176Z,2.50
2022-10-28T04:10:03.673Z,2.50
2022-10-28T04:15:09.252Z,3.30
2022-10-28T04:20:16.960Z,2.80
2022-10-28T04:25:20.339Z,3.20
2022-10-28T04:30:23.698Z,1.80
2022-10-28T04:35:26.918Z,2.40
2022-10-28T04:40:33.047Z,1.80
2022-10-28T04:45:36.109Z,3.50
2022-10-28T04:50:39.389Z,3.60
2022-10-28T04:55:46.795Z,2.70
2022-10-28T05:00:50.062Z,1.70
2022-10-28T05:05:53.189Z,3.10
2022-10-28T05:10:58.825Z,1.30
2022-10-28T05:16:03.344Z,2.40
2022-10-28T05:21:11.644Z,1.20
2022-10-28T05:26:20.331Z,2.10
2022-10-28T05:31:32.918Z,2.00
2022-10-28T05:36:39.289Z,1.80
2022-10-28T05:41:42.817Z,2.40
2022-10-28T05:46:46.057Z,2.80
2022-10-28T05:51:49.764Z,1.60
2022-10-28T05:56:55.654Z,1.20
2022-10-28T06:01:58.944Z,2.90
2022-10-28T06:07:02.180Z,2.10
2022-10-28T06:12:05.471Z,1.90
2022-10-28T06:17:08.798Z,3.10
2022-10-28T06:22:12.020Z,1.90
2022-10-28T06:27:15.253Z,2.10
2022-10-28T06:32:20.239Z,1.40
2022-10-28T06:37:23.535Z,2.50
2022-10-28T06:42:26.693Z,2.20
2022-10-28T06:47:31.424Z,2.60
2022-10-28T06:52:35.241Z,1.00
2022-10-28T06:57:48.651Z,1.60
2022-10-28T07:03:07.871Z,2.40
2022-10-28T07:08:15.224Z,2.60
2022-10-28T07:13:19.876Z,2.60
2022-10-28T07:18:35.105Z,1.70
2022-10-28T07:23:51.894Z,2.50
2022-10-28T07:28:58.298Z,3.40
2022-10-28T07:34:01.685Z,1.60
2022-10-28T07:39:06.005Z,2.80
2022-10-28T07:44:10.801Z,2.40
2022-10-28T07:49:18.255Z,1.50
2022-10-28T07:54:22.895Z,1.90
2022-10-28T07:59:26.935Z,2.00
2022-10-28T08:04:33.654Z,1.20
2022-10-28T08:09:41.127Z,1.60
2022-10-28T08:14:47.464Z,2.20
2022-10-28T08:19:50.824Z,1.90
2022-10-28T08:24:58.112Z,1.10
2022-10-28T08:30:09.455Z,2.90
2022-10-28T08:35:28.848Z,1.50
2022-10-28T08:40:42.252Z,0.70
2022-10-28T08:46:03.540Z,1.60
2022-10-28T08:51:19.926Z,1.80
2022-10-28T08:56:40.637Z,1.30
2022-10-28T09:06:56.795Z,1.60
2022-10-28T09:12:34.996Z,1.20
2022-10-28T09:17:47.729Z,1.60
2022-10-28T09:22:59.247Z,0.90
2022-10-28T09:28:05.402Z,1.20
2022-10-28T09:33:34.111Z,0.60
2022-10-28T09:38:38.218Z,1.70
2022-10-28T09:43:58.524Z,1.10
2022-10-28T09:49:17.993Z,0.60
2022-10-28T09:54:31.629Z,0.60
2022-10-28T09:59:34.876Z,0.70
2022-10-28T10:04:38.020Z,1.10
2022-10-28T10:09:41.440Z,0.60
2022-10-28T10:14:54.580Z,0.70
2022-10-28T10:20:12.179Z,0.40
2022-10-28T10:25:18.732Z,1.10
2022-10-28T10:30:24.732Z,0.10
2022-10-28T10:35:33.621Z,0.20
2022-10-28T10:40:49.471Z,0.20
2022-10-28T10:46:02.238Z,0.60
2022-10-28T10:51:25.959Z,0.50
2022-10-28T10:56:31.582Z,0.60
2022-10-28T11:01:37.691Z,0.20
2022-10-28T11:06:42.676Z,0.80
2022-10-28T11:11:46.190Z,0.30
2022-10-28T11:16:52.182Z,0.10
2022-10-28T11:22:21.476Z,0.20
2022-10-28T11:27:48.685Z,0.10
2022-10-28T11:33:28.862Z,0.20
2022-10-28T11:39:12.514Z,0.20
2022-10-28T11:44:55.837Z,0.20
2022-10-28T11:50:25.606Z,0.60
2022-10-28T11:55:57.895Z,0.10
2022-10-28T12:01:31.292Z,0.30
2022-10-28T12:07:05.417Z,0.30
2022-10-28T12:12:33.704Z,0.20
2022-10-28T12:17:47.203Z,0.60
2022-10-28T12:22:56.764Z,0.10
2022-10-28T12:28:11.315Z,0.10
2022-10-28T12:33:46.453Z,0.30
2022-10-28T12:39:01.575Z,0.00
2022-10-28T12:44:17.012Z,0.10
2022-10-28T12:49:44.283Z,0.10
2022-10-28T12:54:55.951Z,0.30
2022-10-28T13:05:43.759Z,0.50
2022-10-28T13:11:21.455Z,0.30
2022-10-28T13:16:40.919Z,0.10
2022-10-28T13:22:05.719Z,1.10
2022-10-28T13:27:17.065Z,0.00
2022-10-28T13:32:39.240Z,0.40
2022-10-28T13:37:48.713Z,0.20
2022-10-28T13:49:34.745Z,0.20
2022-10-28T13:55:01.064Z,0.00
2022-10-28T14:00:24.543Z,0.20
2022-10-28T14:05:37.106Z,0.30
2022-10-28T14:10:41.607Z,0.40
2022-10-28T14:15:49.361Z,0.00
2022-10-28T14:21:02.149Z,0.00
2022-10-28T14:26:08.206Z,0.30
2022-10-28T14:31:16.318Z,0.20
2022-10-28T14:36:20.095Z,0.80
2022-10-28T14:47:18.756Z,0.30
2022-10-28T14:52:24.398Z,1.00
2022-10-28T14:57:34.103Z,0.20
2022-10-28T15:02:38.581Z,0.00
2022-10-28T15:07:42.633Z,0.50
2022-10-28T15:12:52.321Z,0.40
2022-10-28T15:18:10.174Z,0.20
2022-10-28T15:23:13.433Z,0.30
2022-10-28T15:28:19.247Z,0.30
2022-10-28T15:33:42.025Z,0.00
2022-10-28T15:38:50.960Z,0.00
2022-10-28T15:44:37.475Z,0.00
2022-10-28T15:49:41.143Z,0.80
2022-10-28T15:55:35.613Z,0.30
2022-10-28T16:00:54.545Z,0.40
2022-10-28T16:06:21.798Z,0.30
2022-10-28T16:12:03.471Z,0.80
2022-10-28T16:17:21.967Z,0.50
2022-10-28T16:22:43.914Z,1.40
2022-10-28T16:27:51.071Z,0.30
2022-10-28T16:32:57.186Z,0.00
2022-10-28T16:38:01.075Z,0.80
2022-10-28T16:43:04.281Z,0.60
2022-10-28T16:48:13.268Z,0.90
2022-10-28T16:53:20.007Z,0.30
2022-10-28T16:58:27.035Z,0.20
2022-10-28T17:03:31.539Z,0.20
2022-10-28T17:09:02.007Z,0.20
2022-10-28T17:14:02.984Z,0.20
2022-10-28T17:19:06.183Z,0.50
2022-10-28T17:24:09.995Z,0.50
2022-10-28T17:29:13.409Z,0.30
2022-10-28T17:34:20.059Z,0.10
2022-10-28T17:39:26.455Z,0.20
2022-10-28T17:44:34.742Z,0.80
2022-10-28T17:49:42.617Z,0.50
2022-10-28T17:54:46.419Z,0.60
2022-10-28T17:59:49.639Z,1.20
2022-10-28T18:04:52.828Z,1.30
2022-10-28T18:09:56.090Z,0.10
2022-10-28T18:15:03.105Z,0.70
2022-10-28T18:20:07.188Z,1.00
2022-10-28T18:25:13.133Z,0.30
2022-10-28T18:30:17.095Z,0.40
2022-10-28T18:35:21.826Z,1.60
2022-10-28T18:40:28.020Z,0.30
2022-10-28T18:45:34.003Z,0.80
2022-10-28T18:50:49.221Z,0.60
2022-10-28T18:56:23.261Z,0.30
2022-10-28T19:01:30.525Z,0.50
2022-10-28T19:06:42.683Z,0.30
2022-10-28T19:11:49.915Z,0.70
2022-10-28T19:16:53.235Z,1.00
2022-10-28T19:22:00.689Z,0.90
2022-10-28T19:27:20.577Z,0.80
2022-10-28T19:32:44.176Z,0.90
2022-10-28T19:38:20.523Z,0.50
2022-10-28T19:43:45.152Z,3.30
2022-10-28T19:49:04.854Z,3.90
2022-10-28T19:54:24.023Z,4.30
2022-10-28T20:00:06.841Z,2.40
2022-10-28T20:05:15.341Z,2.90
2022-10-28T20:10:32.051Z,1.60
2022-10-28T20:15:38.557Z,2.70
2022-10-28T20:20:48.111Z,0.90
2022-10-28T20:25:52.663Z,1.30
2022-10-28T20:31:07.071Z,1.80
2022-10-28T20:36:39.242Z,3.00
2022-10-28T20:41:51.830Z,2.90
2022-10-28T20:46:59.056Z,2.00
2022-10-28T20:52:05.140Z,2.70
2022-10-28T20:57:08.553Z,1.50
2022-10-28T21:02:12.467Z,1.30
2022-10-28T21:07:16.020Z,1.30
2022-10-28T21:12:19.303Z,2.70
2022-10-28T21:17:24.068Z,1.00
2022-10-28T21:22:29.628Z,1.00
2022-10-28T21:27:40.153Z,2.60
2022-10-28T21:32:44.236Z,2.70
2022-10-28T21:37:50.584Z,0.50
2022-10-28T21:42:55.540Z,1.00
2022-10-28T21:47:59.212Z,0.50
2022-10-28T21:53:04.355Z,1.30
2022-10-28T21:58:11.507Z,2.10
2022-10-28T22:03:14.814Z,1.30
2022-10-28T22:08:18.132Z,2.10
2022-10-28T22:13:21.472Z,2.50
2022-10-28T22:18:25.415Z,0.90
2022-10-28T22:23:28.890Z,1.20
2022-10-28T22:28:32.590Z,2.10
2022-10-28T22:33:36.142Z,2.00
2022-10-28T22:38:40.321Z,2.00
2022-10-28T22:43:46.466Z,1.20
2022-10-28T22:48:53.218Z,1.70
2022-10-28T22:53:56.587Z,1.30
2022-10-28T22:59:01.647Z,0.40
2022-10-28T23:04:10.176Z,1.30
2022-10-28T23:09:13.590Z,2.30
2022-10-28T23:14:16.951Z,1.20
2022-10-28T23:19:20.287Z,0.90
2022-10-28T23:24:23.539Z,0.50
2022-10-28T23:29:26.847Z,0.60
2022-10-28T23:34:30.949Z,0.90
2022-10-28T23:39:34.297Z,1.10
2022-10-28T23:44:37.734Z,1.40
2022-10-28T23:49:43.851Z,1.10
2022-10-28T23:54:47.218Z,1.50
2022-10-28T23:59:50.509Z,1.00
